Aérodrome :
LOGIN :

S'inscrire | Disclaimer

   EN    FR    IT 

 










Légende :    VFR   VFR Marginal   IFR   IFR Intensif   IFR Très Intensif
Visi : 
Plafond : 
>= 8 km
>= 3000ft
5 à 8 km
1000 à 3000 ft
1500m à 5 km
500 à 1000 ft
800 à 1500m
200 à 500 ft
< 800m
< 200 ft
Symboles :   Orages  Brouillard  Fortes neiges  Fortes précipitations  Vent > 20 kt
SIGMETs :   Divers  Orages  Givrage  Turbulence  Onde Orograph.  Cendres Volcan.






- Altitude de l'aérodrome : 289 ft


LFYR - Romorantin Pruniers

DERNIER METAR :
  • 280800Z AUTO VRB02KT CAVOK 06/06 Q1017 NOSIG

METARs EXPIRÉS :
  • 280730Z AUTO 00000KT CAVOK 03/03 Q1017 NOSIG
  • 280700Z AUTO 00000KT 1000 BR FEW001 00/00 Q1017 BECMG 9999 NSW
  • 280630Z AUTO 00000KT 1300 1100 BR VV/// 00/00 Q1017 BECMG CAVOK
  • 280600Z AUTO 00000KT 1500 0500 BCFG VV/// 00/00 Q1017 TEMPO 3000 BR BECMG NSC
  • 280530Z AUTO 00000KT 3700 BR VV/// 01/01 Q1017 BECMG NSC

TAF AMD TAF LFYR
Valide du 28 à 07h jusqu'au 29 à 03h UTC


280735Z 2807/2903 VRB02KT CAVOK
TEMPO 2807/2808 2000 BR
BECMG 2810/2812 16010KT



MET'MAP, la Météo Aéronautique d'un coup d'oeil ! - Copyright ORBIFLY Décembre 2007 - Disclaimer

ORBIFLY MET'MAP TEAM :

Programmation & Développement : Alexandra Zaïnal
Sur une idée originale de : Baudouin d'Aumeries
Assistance à la programmation : Marc-Olivier Méhu
Soutien technique & logistique : Manuel Goepfert

Contact : metmap@orbifly.com




SOURCES & CREDITS :

   NOAA